createdAt,value
2022-12-24T00:00:13.019Z,6.60
2022-12-24T00:02:39.886Z,6.90
2022-12-24T00:05:07.299Z,6.90
2022-12-24T00:07:34.062Z,6.73
2022-12-24T00:10:00.833Z,6.53
2022-12-24T00:12:27.657Z,6.93
2022-12-24T00:14:54.498Z,7.53
2022-12-24T00:17:21.324Z,7.40
2022-12-24T00:19:48.015Z,6.60
2022-12-24T00:22:15.214Z,6.67
2022-12-24T00:24:41.990Z,7.03
2022-12-24T00:27:08.830Z,6.47
2022-12-24T00:29:35.663Z,6.70
2022-12-24T00:32:02.455Z,6.30
2022-12-24T00:34:29.314Z,6.60
2022-12-24T00:36:56.189Z,6.07
2022-12-24T00:39:22.868Z,6.37
2022-12-24T00:41:49.730Z,6.73
2022-12-24T00:44:16.654Z,6.50
2022-12-24T00:46:43.503Z,6.30
2022-12-24T00:49:11.677Z,6.20
2022-12-24T00:51:38.483Z,6.13
2022-12-24T00:54:06.392Z,5.97
2022-12-24T00:56:33.368Z,6.33
2022-12-24T00:59:00.275Z,6.33
2022-12-24T01:01:27.844Z,7.00
2022-12-24T01:04:17.847Z,7.70
2022-12-24T01:06:44.839Z,8.30
2022-12-24T01:09:11.763Z,7.93
2022-12-24T01:11:38.827Z,8.17
2022-12-24T01:14:05.817Z,8.03
2022-12-24T01:16:32.684Z,8.27
2022-12-24T01:18:59.477Z,8.97
2022-12-24T01:21:27.512Z,8.43
2022-12-24T01:23:54.542Z,8.60
2022-12-24T01:26:21.345Z,8.97
2022-12-24T01:28:48.589Z,8.47
2022-12-24T01:31:19.033Z,9.33
2022-12-24T01:33:47.137Z,7.97
2022-12-24T01:36:14.674Z,8.50
2022-12-24T01:38:42.729Z,8.70
2022-12-24T01:41:36.969Z,8.20
2022-12-24T01:44:31.210Z,8.83
2022-12-24T01:47:22.204Z,8.27
2022-12-24T01:49:54.812Z,7.77
2022-12-24T01:52:24.586Z,8.07
2022-12-24T01:54:58.900Z,8.37
2022-12-24T01:57:49.461Z,7.83
2022-12-24T02:00:16.750Z,8.10
2022-12-24T02:02:49.659Z,7.97
2022-12-24T02:05:32.488Z,8.40
2022-12-24T02:08:03.174Z,8.03
2022-12-24T02:10:30.356Z,7.93
2022-12-24T02:12:58.686Z,8.13
2022-12-24T02:15:30.437Z,7.50
2022-12-24T02:18:18.493Z,7.30
2022-12-24T02:20:54.738Z,7.30
2022-12-24T02:23:28.304Z,7.87
2022-12-24T02:26:18.723Z,7.23
2022-12-24T02:28:54.744Z,7.00
2022-12-24T02:31:26.288Z,7.33
2022-12-24T02:34:06.855Z,6.80
2022-12-24T02:36:44.419Z,6.87
2022-12-24T02:39:20.031Z,7.60
2022-12-24T02:42:08.634Z,6.80
2022-12-24T02:44:50.153Z,6.73
2022-12-24T02:47:20.223Z,6.60
2022-12-24T02:49:49.029Z,6.90
2022-12-24T02:52:39.580Z,6.43
2022-12-24T02:55:35.807Z,6.13
2022-12-24T02:58:27.474Z,5.90
2022-12-24T03:01:18.505Z,5.53
2022-12-24T03:03:55.956Z,5.93
2022-12-24T03:07:03.560Z,6.40
2022-12-24T03:09:44.336Z,6.37
2022-12-24T03:12:17.682Z,6.03
2022-12-24T03:14:45.615Z,6.27
2022-12-24T03:17:13.533Z,6.07
2022-12-24T03:19:41.341Z,5.33
2022-12-24T03:22:11.891Z,5.50
2022-12-24T03:24:39.483Z,5.90
2022-12-24T03:27:09.218Z,5.63
2022-12-24T03:29:39.141Z,5.50
2022-12-24T03:32:06.835Z,5.73
2022-12-24T03:34:34.406Z,5.20
2022-12-24T03:37:01.786Z,5.70
2022-12-24T03:39:29.784Z,5.57
2022-12-24T03:41:57.296Z,5.53
2022-12-24T03:44:25.729Z,6.03
2022-12-24T03:46:55.306Z,6.70
2022-12-24T03:49:23.774Z,5.63
2022-12-24T03:51:51.931Z,5.33
2022-12-24T03:54:20.410Z,5.57
2022-12-24T03:56:48.809Z,5.63
2022-12-24T03:59:16.761Z,5.40
2022-12-24T04:01:44.547Z,6.07
2022-12-24T04:04:12.132Z,6.80
2022-12-24T04:06:39.559Z,5.23
2022-12-24T04:09:07.145Z,5.77
2022-12-24T04:11:36.424Z,5.07
2022-12-24T04:14:03.948Z,5.43
2022-12-24T04:16:31.346Z,5.40
2022-12-24T04:18:58.680Z,5.27
2022-12-24T04:21:26.079Z,5.87
2022-12-24T04:23:53.501Z,5.67
2022-12-24T04:26:20.948Z,5.07
2022-12-24T04:28:48.524Z,4.87
2022-12-24T04:31:17.874Z,5.57
2022-12-24T04:33:45.909Z,5.90
2022-12-24T04:36:17.162Z,4.80
2022-12-24T04:38:44.583Z,5.60
2022-12-24T04:41:23.293Z,5.83
2022-12-24T04:43:52.136Z,5.10
2022-12-24T04:46:25.020Z,4.77
2022-12-24T04:48:53.633Z,6.10
2022-12-24T04:51:21.325Z,5.57
2022-12-24T04:53:48.159Z,5.00
2022-12-24T04:56:24.311Z,4.97
2022-12-24T04:58:51.974Z,5.40
2022-12-24T05:01:23.793Z,5.43
2022-12-24T05:03:51.875Z,5.30
2022-12-24T05:06:22.080Z,5.13
2022-12-24T05:08:49.649Z,5.87
2022-12-24T05:11:16.779Z,5.03
2022-12-24T05:13:47.387Z,5.57
2022-12-24T05:16:17.221Z,4.97
2022-12-24T05:18:44.448Z,5.83
2022-12-24T05:21:14.647Z,5.73
2022-12-24T05:24:00.263Z,5.23
2022-12-24T05:26:46.933Z,5.23
2022-12-24T05:29:13.911Z,4.57
2022-12-24T05:31:42.431Z,5.23
2022-12-24T05:34:10.458Z,4.87
2022-12-24T05:36:37.645Z,5.37
2022-12-24T05:39:09.762Z,5.30
2022-12-24T05:41:40.444Z,5.53
2022-12-24T05:44:07.133Z,6.07
2022-12-24T05:46:33.989Z,5.43
2022-12-24T05:49:00.779Z,5.40
2022-12-24T05:51:27.529Z,5.30
2022-12-24T05:53:54.246Z,5.20
2022-12-24T05:56:23.348Z,5.50
2022-12-24T05:58:52.214Z,6.07
2022-12-24T06:01:21.007Z,5.60
2022-12-24T06:03:50.030Z,6.07
2022-12-24T06:06:23.377Z,5.40
2022-12-24T06:08:52.857Z,5.63
2022-12-24T06:11:24.277Z,5.10
2022-12-24T06:13:53.870Z,5.97
2022-12-24T06:16:22.409Z,6.00
2022-12-24T06:18:50.146Z,6.50
2022-12-24T06:21:19.335Z,6.57
2022-12-24T06:23:47.268Z,6.37
2022-12-24T06:26:17.411Z,5.90
2022-12-24T06:28:44.921Z,6.30
2022-12-24T06:31:18.032Z,5.83
2022-12-24T06:33:45.077Z,5.90
2022-12-24T06:36:21.853Z,6.13
2022-12-24T06:38:49.526Z,5.53
2022-12-24T06:41:17.616Z,5.93
2022-12-24T06:43:52.425Z,5.70
2022-12-24T06:46:45.152Z,8.73
2022-12-24T06:49:11.833Z,6.50
2022-12-24T06:51:38.523Z,6.40
2022-12-24T06:54:05.278Z,6.20
2022-12-24T06:56:32.097Z,6.70
2022-12-24T06:59:04.875Z,7.00
2022-12-24T07:01:32.310Z,5.90
2022-12-24T07:03:59.352Z,6.47
2022-12-24T07:06:28.920Z,8.32
2022-12-24T07:08:55.854Z,11.00
2022-12-24T07:11:25.084Z,10.67
2022-12-24T07:13:51.771Z,9.47
2022-12-24T07:16:18.711Z,8.77
2022-12-24T07:18:45.630Z,10.20
2022-12-24T07:21:12.380Z,7.50
2022-12-24T07:23:39.234Z,7.00
2022-12-24T07:26:07.161Z,7.53
2022-12-24T07:28:34.396Z,7.17
2022-12-24T07:31:01.388Z,6.40
2022-12-24T07:33:28.250Z,6.27
2022-12-24T07:36:03.535Z,6.80
2022-12-24T07:38:31.199Z,7.37
2022-12-24T07:40:58.590Z,7.23
2022-12-24T07:43:26.702Z,7.20
2022-12-24T07:45:57.994Z,7.13
2022-12-24T07:48:26.396Z,7.87
2022-12-24T07:50:53.215Z,7.10
2022-12-24T07:53:20.147Z,7.70
2022-12-24T07:55:46.920Z,6.77
2022-12-24T07:58:13.639Z,7.20
2022-12-24T08:00:40.648Z,7.33
2022-12-24T08:03:07.452Z,8.17
2022-12-24T08:05:36.075Z,7.50
2022-12-24T08:08:02.994Z,8.10
2022-12-24T08:10:29.739Z,7.23
2022-12-24T08:12:56.452Z,7.10
2022-12-24T08:15:23.199Z,7.73
2022-12-24T08:17:49.955Z,7.53
2022-12-24T08:20:17.426Z,7.97
2022-12-24T08:22:44.109Z,6.87
2022-12-24T08:25:11.064Z,7.53
2022-12-24T08:27:38.157Z,8.20
2022-12-24T08:30:06.044Z,7.33
2022-12-24T08:32:32.949Z,7.63
2022-12-24T08:34:59.718Z,7.47
2022-12-24T08:37:26.442Z,8.47
2022-12-24T08:39:53.185Z,7.97
2022-12-24T08:42:19.897Z,7.77
2022-12-24T08:44:46.993Z,7.77
2022-12-24T08:47:13.683Z,7.67
2022-12-24T08:49:40.491Z,8.30
2022-12-24T08:52:07.297Z,7.97
2022-12-24T08:54:34.052Z,8.50
2022-12-24T08:57:00.727Z,8.13
2022-12-24T08:59:27.470Z,7.13
2022-12-24T09:01:54.467Z,7.20
2022-12-24T09:04:21.216Z,7.67
2022-12-24T09:06:47.962Z,7.10
2022-12-24T09:09:17.948Z,7.67
2022-12-24T09:11:45.342Z,6.60
2022-12-24T09:14:12.340Z,8.37
2022-12-24T09:16:39.078Z,7.70
2022-12-24T09:19:05.937Z,8.00
2022-12-24T09:21:32.664Z,7.90
2022-12-24T09:24:01.366Z,7.43
2022-12-24T09:26:30.013Z,8.13
2022-12-24T09:28:57.593Z,7.70
2022-12-24T09:31:24.819Z,8.20
2022-12-24T09:33:51.741Z,7.10
2022-12-24T09:36:19.767Z,7.50
2022-12-24T09:38:47.117Z,8.50
2022-12-24T09:41:15.329Z,7.83
2022-12-24T09:43:49.997Z,7.47
2022-12-24T09:46:23.250Z,7.23
2022-12-24T09:48:55.662Z,10.17
2022-12-24T09:51:41.915Z,9.90
2022-12-24T09:54:18.083Z,7.63
2022-12-24T09:56:47.535Z,7.10
2022-12-24T09:59:20.492Z,7.33
2022-12-24T10:01:49.184Z,8.70
2022-12-24T10:04:18.924Z,9.17
2022-12-24T10:06:58.657Z,8.07
2022-12-24T10:09:40.331Z,7.67
2022-12-24T10:12:19.199Z,8.23
2022-12-24T10:14:58.005Z,7.50
2022-12-24T10:17:38.026Z,7.20
2022-12-24T10:20:07.809Z,6.77
2022-12-24T10:22:52.037Z,6.60
2022-12-24T10:25:28.187Z,5.70
2022-12-24T10:27:58.095Z,6.73
2022-12-24T10:30:25.244Z,6.17
2022-12-24T10:32:53.827Z,5.60
2022-12-24T10:35:29.315Z,6.10
2022-12-24T10:37:58.083Z,6.50
2022-12-24T10:40:35.750Z,5.97
2022-12-24T10:43:05.447Z,5.67
2022-12-24T10:45:40.327Z,6.43
2022-12-24T10:48:11.991Z,5.57
2022-12-24T10:50:53.163Z,6.30
2022-12-24T10:53:44.621Z,6.27
2022-12-24T10:56:14.198Z,5.60
2022-12-24T10:58:53.526Z,6.00
2022-12-24T11:01:43.561Z,8.13
2022-12-24T11:04:23.034Z,10.50
2022-12-24T11:06:53.164Z,8.67
2022-12-24T11:09:27.849Z,8.27
2022-12-24T11:11:57.411Z,8.97
2022-12-24T11:14:25.611Z,9.63
2022-12-24T11:16:54.777Z,8.13
2022-12-24T11:19:36.011Z,6.90
2022-12-24T11:22:16.760Z,6.20
2022-12-24T11:24:49.925Z,5.90
2022-12-24T11:27:46.020Z,6.80
2022-12-24T11:30:15.810Z,7.00
2022-12-24T11:32:50.921Z,8.90
2022-12-24T11:35:23.404Z,12.13
2022-12-24T11:38:13.127Z,7.10
2022-12-24T11:40:45.961Z,6.00
2022-12-24T11:43:21.627Z,6.47
2022-12-24T11:45:56.812Z,6.20
2022-12-24T11:48:34.446Z,5.40
2022-12-24T11:51:04.700Z,7.43
2022-12-24T11:53:50.385Z,7.03
2022-12-24T11:56:40.936Z,9.70
2022-12-24T11:59:21.692Z,6.33
2022-12-24T12:01:56.928Z,6.47
2022-12-24T12:04:36.535Z,4.53
2022-12-24T12:07:40.066Z,5.37
2022-12-24T12:10:20.948Z,6.00
2022-12-24T12:13:15.942Z,5.20
2022-12-24T12:16:05.487Z,5.30
2022-12-24T12:18:47.128Z,5.30
2022-12-24T12:21:23.487Z,5.43
2022-12-24T12:23:54.933Z,6.00
2022-12-24T12:26:32.241Z,5.40
2022-12-24T12:29:04.070Z,5.80
2022-12-24T12:31:35.997Z,6.10
2022-12-24T12:34:11.867Z,5.87
2022-12-24T12:37:00.598Z,6.03
2022-12-24T12:39:27.271Z,5.70
2022-12-24T12:42:02.776Z,6.27
2022-12-24T12:44:35.542Z,6.17
2022-12-24T12:47:09.638Z,5.53
2022-12-24T12:50:32.635Z,6.70
2022-12-24T12:53:14.261Z,6.13
2022-12-24T12:56:06.996Z,5.77
2022-12-24T12:58:48.161Z,6.90
2022-12-24T13:01:33.714Z,6.43
2022-12-24T13:04:03.310Z,6.53
2022-12-24T13:06:56.034Z,7.50
2022-12-24T13:09:43.707Z,7.10
2022-12-24T13:12:29.346Z,12.23
2022-12-24T13:15:13.999Z,8.17
2022-12-24T13:17:52.650Z,8.97
2022-12-24T13:20:26.697Z,9.13
2022-12-24T13:22:59.299Z,8.47
2022-12-24T13:25:39.008Z,9.90
2022-12-24T13:28:24.931Z,9.57
2022-12-24T13:30:53.282Z,8.77
2022-12-24T13:33:38.357Z,8.33
2022-12-24T13:36:07.143Z,7.90
2022-12-24T13:38:44.942Z,7.77
2022-12-24T13:41:38.668Z,9.83
2022-12-24T13:44:15.335Z,8.77
2022-12-24T13:46:58.121Z,11.93
2022-12-24T13:49:33.224Z,7.97
2022-12-24T13:52:12.079Z,8.00
2022-12-24T13:54:42.956Z,8.50
2022-12-24T13:57:38.791Z,8.40
2022-12-24T14:00:20.645Z,8.60
2022-12-24T14:02:56.452Z,8.97
2022-12-24T14:05:43.477Z,9.50
2022-12-24T14:08:14.428Z,8.97
2022-12-24T14:10:45.868Z,10.30
2022-12-24T14:13:40.604Z,9.40
2022-12-24T14:16:13.421Z,8.87
2022-12-24T14:18:43.766Z,10.80
2022-12-24T14:21:26.692Z,9.27
2022-12-24T14:24:00.317Z,9.53
2022-12-24T14:26:47.175Z,9.00
2022-12-24T14:29:25.385Z,9.13
2022-12-24T14:31:54.455Z,9.83
2022-12-24T14:34:21.254Z,10.33
2022-12-24T14:36:50.428Z,9.37
2022-12-24T14:39:32.500Z,9.77
2022-12-24T14:42:17.692Z,9.60
2022-12-24T14:45:03.064Z,9.77
2022-12-24T14:47:47.977Z,10.43
2022-12-24T14:50:37.999Z,9.50
2022-12-24T14:53:20.843Z,9.50
2022-12-24T14:55:49.542Z,12.00
2022-12-24T14:58:27.023Z,10.67
2022-12-24T15:00:57.759Z,10.13
2022-12-24T15:03:27.673Z,10.97
2022-12-24T15:05:59.370Z,11.53
2022-12-24T15:08:52.653Z,11.07
2022-12-24T15:11:22.402Z,11.33
2022-12-24T15:13:56.442Z,10.53
2022-12-24T15:16:27.831Z,12.17
2022-12-24T15:19:01.061Z,11.80
2022-12-24T15:21:34.277Z,12.33
2022-12-24T15:24:01.142Z,12.07
2022-12-24T15:26:43.668Z,15.67
2022-12-24T15:29:33.484Z,26.27
2022-12-24T15:32:04.869Z,25.03
2022-12-24T15:34:44.413Z,15.17
2022-12-24T15:37:14.750Z,13.63
2022-12-24T15:39:41.983Z,12.77
2022-12-24T15:42:13.591Z,13.13
2022-12-24T15:44:44.516Z,14.07
2022-12-24T15:47:19.383Z,14.80
2022-12-24T15:49:50.436Z,15.33
2022-12-24T15:52:21.217Z,15.40
2022-12-24T15:54:55.424Z,13.53
2022-12-24T15:57:29.729Z,13.43
2022-12-24T15:59:58.252Z,14.07
2022-12-24T16:02:24.989Z,13.37
2022-12-24T16:04:51.895Z,14.27
2022-12-24T16:07:26.809Z,13.87
2022-12-24T16:10:13.409Z,13.40
2022-12-24T16:12:40.399Z,13.27
2022-12-24T16:15:15.219Z,13.77
2022-12-24T16:17:47.885Z,14.03
2022-12-24T16:20:21.344Z,13.13
2022-12-24T16:22:50.154Z,14.33
2022-12-24T16:25:28.911Z,15.27
2022-12-24T16:27:58.519Z,15.43
2022-12-24T16:30:27.146Z,15.67
2022-12-24T16:32:53.917Z,17.73
2022-12-24T16:35:26.453Z,17.73
2022-12-24T16:37:54.424Z,16.37
2022-12-24T16:40:26.901Z,16.00
2022-12-24T16:43:13.973Z,19.47
2022-12-24T16:45:41.033Z,17.07
2022-12-24T16:48:08.853Z,17.00
2022-12-24T16:50:36.167Z,13.47
2022-12-24T16:53:03.116Z,14.17
2022-12-24T16:55:35.960Z,17.17
2022-12-24T16:58:02.680Z,17.03
2022-12-24T17:00:29.453Z,16.43
2022-12-24T17:02:56.478Z,18.17
2022-12-24T17:05:23.939Z,31.73
2022-12-24T17:07:51.132Z,17.20
2022-12-24T17:10:18.181Z,15.13
2022-12-24T17:12:46.162Z,17.57
2022-12-24T17:15:12.883Z,18.27
2022-12-24T17:17:39.613Z,16.33
2022-12-24T17:20:07.022Z,15.23
2022-12-24T17:22:34.165Z,14.80
2022-12-24T17:25:00.909Z,14.73
2022-12-24T17:27:27.669Z,15.67
2022-12-24T17:29:54.431Z,13.90
2022-12-24T17:32:21.356Z,14.60
2022-12-24T17:34:48.045Z,14.33
2022-12-24T17:37:14.770Z,16.30
2022-12-24T17:39:41.475Z,17.57
2022-12-24T17:42:08.223Z,15.73
2022-12-24T17:44:34.981Z,15.17
2022-12-24T17:47:03.320Z,14.27
2022-12-24T17:49:30.126Z,13.13
2022-12-24T17:51:57.002Z,14.80
2022-12-24T17:54:24.224Z,14.97
2022-12-24T17:56:51.067Z,14.67
2022-12-24T17:59:17.849Z,14.10
2022-12-24T18:01:44.649Z,15.50
2022-12-24T18:04:11.519Z,13.70
2022-12-24T18:06:47.263Z,13.90
2022-12-24T18:09:16.039Z,14.77
2022-12-24T18:11:42.701Z,15.00
2022-12-24T18:14:13.942Z,15.20
2022-12-24T18:16:42.137Z,14.13
2022-12-24T18:19:11.601Z,14.43
2022-12-24T18:21:38.422Z,15.57
2022-12-24T18:24:05.600Z,14.47
2022-12-24T18:26:33.323Z,14.17
2022-12-24T18:29:01.613Z,23.77
2022-12-24T18:31:29.868Z,18.97
2022-12-24T18:33:57.088Z,17.63
2022-12-24T18:36:23.907Z,21.43
2022-12-24T18:38:51.147Z,17.00
2022-12-24T18:41:20.940Z,15.37
2022-12-24T18:43:48.538Z,13.87
2022-12-24T18:46:24.177Z,15.90
2022-12-24T18:48:51.718Z,14.70
2022-12-24T18:51:22.067Z,14.47
2022-12-24T18:53:49.285Z,14.53
2022-12-24T18:56:21.737Z,15.33
2022-12-24T18:58:49.516Z,14.37
2022-12-24T19:01:20.006Z,15.73
2022-12-24T19:03:47.843Z,14.90
2022-12-24T19:06:14.650Z,32.07
2022-12-24T19:08:58.925Z,24.73
2022-12-24T19:11:28.804Z,16.77
2022-12-24T19:13:55.813Z,22.03
2022-12-24T19:16:22.700Z,22.37
2022-12-24T19:18:49.798Z,12.73
2022-12-24T19:21:18.036Z,13.37
2022-12-24T19:23:47.049Z,12.47
2022-12-24T19:26:16.753Z,11.30
2022-12-24T19:28:45.226Z,11.27
2022-12-24T19:31:15.325Z,10.40
2022-12-24T19:33:45.114Z,10.97
2022-12-24T19:36:15.143Z,10.80
2022-12-24T19:38:42.371Z,9.90
2022-12-24T19:41:15.270Z,10.50
2022-12-24T19:43:44.329Z,9.23
2022-12-24T19:46:16.026Z,10.30
2022-12-24T19:48:43.567Z,10.23
2022-12-24T19:51:12.378Z,9.40
2022-12-24T19:53:40.175Z,9.13
2022-12-24T19:56:08.645Z,8.90
2022-12-24T19:58:36.074Z,8.00
2022-12-24T20:01:15.657Z,8.80
2022-12-24T20:03:43.184Z,8.30
2022-12-24T20:06:10.106Z,8.53
2022-12-24T20:08:37.920Z,8.57
2022-12-24T20:11:10.336Z,8.13
2022-12-24T20:13:39.168Z,7.27
2022-12-24T20:16:14.920Z,7.17
2022-12-24T20:18:41.952Z,6.63
2022-12-24T20:21:11.291Z,6.93
2022-12-24T20:23:39.473Z,7.63
2022-12-24T20:26:07.571Z,6.00
2022-12-24T20:28:36.307Z,6.77
2022-12-24T20:31:13.763Z,6.97
2022-12-24T20:33:42.363Z,6.00
2022-12-24T20:36:10.086Z,5.90
2022-12-24T20:38:37.881Z,5.77
2022-12-24T20:41:05.706Z,5.87
2022-12-24T20:43:37.340Z,6.33
2022-12-24T20:46:06.960Z,6.00
2022-12-24T20:48:34.964Z,5.60
2022-12-24T20:51:09.507Z,5.70
2022-12-24T20:53:38.485Z,5.90
2022-12-24T20:56:05.583Z,5.23
2022-12-24T20:58:32.592Z,6.10
2022-12-24T21:00:59.308Z,5.60
2022-12-24T21:03:26.310Z,5.53
2022-12-24T21:05:53.204Z,5.20
2022-12-24T21:08:20.082Z,4.80
2022-12-24T21:10:47.124Z,4.90
2022-12-24T21:13:13.910Z,4.93
2022-12-24T21:15:41.053Z,4.73
2022-12-24T21:18:11.946Z,4.90
2022-12-24T21:20:40.105Z,4.03
2022-12-24T21:23:07.385Z,4.93
2022-12-24T21:25:34.591Z,4.60
2022-12-24T21:28:02.443Z,4.80
2022-12-24T21:30:29.269Z,5.93
2022-12-24T21:32:56.112Z,6.43
2022-12-24T21:35:23.175Z,6.10
2022-12-24T21:37:49.915Z,6.20
2022-12-24T21:40:16.811Z,6.87
2022-12-24T21:42:43.541Z,5.63
2022-12-24T21:45:10.988Z,5.87
2022-12-24T21:47:38.256Z,5.47
2022-12-24T21:50:28.240Z,6.57
2022-12-24T21:53:18.956Z,5.80
2022-12-24T21:55:45.853Z,6.63
2022-12-24T21:58:12.707Z,6.70
2022-12-24T22:00:42.448Z,6.03
2022-12-24T22:03:09.508Z,5.93
2022-12-24T22:05:36.254Z,6.50
2022-12-24T22:08:21.668Z,6.57
2022-12-24T22:11:06.900Z,7.33
2022-12-24T22:13:33.630Z,6.73
2022-12-24T22:16:00.434Z,7.23
2022-12-24T22:18:27.345Z,7.37
2022-12-24T22:20:54.851Z,7.13
2022-12-24T22:23:21.609Z,6.33
2022-12-24T22:25:48.387Z,6.43
2022-12-24T22:28:15.191Z,6.10
2022-12-24T22:30:43.075Z,7.57
2022-12-24T22:33:11.045Z,7.70
2022-12-24T22:35:41.286Z,8.83
2022-12-24T22:38:09.549Z,7.27
2022-12-24T22:40:39.451Z,6.37
2022-12-24T22:43:06.221Z,7.17
2022-12-24T22:45:32.918Z,6.37
2022-12-24T22:47:59.658Z,7.03
2022-12-24T22:50:26.516Z,6.53
2022-12-24T22:52:53.952Z,7.00
2022-12-24T22:55:21.319Z,6.53
2022-12-24T22:57:48.745Z,6.40
2022-12-24T23:00:37.173Z,6.60
2022-12-24T23:03:05.143Z,6.03
2022-12-24T23:05:32.125Z,6.20
2022-12-24T23:07:59.144Z,6.73
2022-12-24T23:10:25.921Z,6.33
2022-12-24T23:13:14.779Z,6.43
2022-12-24T23:15:42.624Z,6.87
2022-12-24T23:18:10.024Z,6.67
2022-12-24T23:20:43.142Z,6.80
2022-12-24T23:23:09.842Z,7.90
2022-12-24T23:25:37.135Z,7.37
2022-12-24T23:28:03.963Z,8.13
2022-12-24T23:30:30.729Z,7.23
2022-12-24T23:32:57.549Z,7.07
2022-12-24T23:35:24.493Z,7.67
2022-12-24T23:37:51.187Z,6.70
2022-12-24T23:40:17.985Z,7.80
2022-12-24T23:42:44.640Z,7.57
2022-12-24T23:45:11.798Z,7.77
2022-12-24T23:47:38.619Z,7.57
2022-12-24T23:50:06.447Z,7.77
2022-12-24T23:52:33.161Z,7.70
2022-12-24T23:54:59.895Z,8.37
2022-12-24T23:57:26.596Z,7.33
2022-12-24T23:59:53.457Z,8.37
